sensor_id;sensor_type;location;lat;lon;timestamp;pressure;altitude;pressure_sealevel;temperature;humidity
72959;BME280;60008;50.826;6.896;2023-10-13T00:01:40;100788.91;;;17.50;100.00
72959;BME280;60008;50.826;6.896;2023-10-13T00:04:26;100780.44;;;17.40;100.00
72959;BME280;60008;50.826;6.896;2023-10-13T00:07:11;100780.44;;;17.40;100.00
72959;BME280;60008;50.826;6.896;2023-10-13T00:09:56;100777.78;;;17.34;100.00
72959;BME280;60008;50.826;6.896;2023-10-13T00:12:41;100775.09;;;17.34;100.00
72959;BME280;60008;50.826;6.896;2023-10-13T00:15:39;100776.75;;;17.41;100.00
72959;BME280;60008;50.826;6.896;2023-10-13T00:18:30;100788.25;;;17.28;100.00
72959;BME280;60008;50.826;6.896;2023-10-13T00:21:19;100782.06;;;17.21;100.00
72959;BME280;60008;50.826;6.896;2023-10-13T00:24:16;100781.22;;;17.21;100.00
72959;BME280;60008;50.826;6.896;2023-10-13T00:27:12;100773.63;;;17.24;100.00
72959;BME280;60008;50.826;6.896;2023-10-13T00:30:15;100764.34;;;17.27;100.00
72959;BME280;60008;50.826;6.896;2023-10-13T00:33:18;100765.19;;;17.27;100.00
72959;BME280;60008;50.826;6.896;2023-10-13T00:36:08;100755.09;;;17.36;100.00
72959;BME280;60008;50.826;6.896;2023-10-13T00:38:56;100759.22;;;17.32;100.00
72959;BME280;60008;50.826;6.896;2023-10-13T00:41:43;100754.25;;;17.29;100.00
72959;BME280;60008;50.826;6.896;2023-10-13T00:44:39;100752.81;;;17.26;100.00
72959;BME280;60008;50.826;6.896;2023-10-13T00:47:28;100752.81;;;17.26;100.00
72959;BME280;60008;50.826;6.896;2023-10-13T00:50:34;100747.44;;;17.26;100.00
72959;BME280;60008;50.826;6.896;2023-10-13T00:53:21;100745.38;;;17.28;100.00
72959;BME280;60008;50.826;6.896;2023-10-13T00:56:07;100736.53;;;17.35;100.00
72959;BME280;60008;50.826;6.896;2023-10-13T00:58:54;100730.56;;;17.33;100.00
72959;BME280;60008;50.826;6.896;2023-10-13T01:01:44;100725.00;;;17.41;100.00
72959;BME280;60008;50.826;6.896;2023-10-13T01:04:30;100724.41;;;17.39;100.00
72959;BME280;60008;50.826;6.896;2023-10-13T01:07:17;100719.63;;;17.34;100.00
72959;BME280;60008;50.826;6.896;2023-10-13T01:10:02;100714.28;;;17.41;100.00
72959;BME280;60008;50.826;6.896;2023-10-13T01:12:49;100715.94;;;17.35;100.00
72959;BME280;60008;50.826;6.896;2023-10-13T01:15:37;100706.25;;;17.34;100.00
72959;BME280;60008;50.826;6.896;2023-10-13T01:18:22;100710.56;;;17.28;100.00
72959;BME280;60008;50.826;6.896;2023-10-13T01:21:07;100705.19;;;17.28;100.00
72959;BME280;60008;50.826;6.896;2023-10-13T01:23:52;100698.44;;;17.39;100.00
72959;BME280;60008;50.826;6.896;2023-10-13T01:26:37;100693.06;;;17.33;100.00
72959;BME280;60008;50.826;6.896;2023-10-13T01:29:27;100692.44;;;17.37;100.00
72959;BME280;60008;50.826;6.896;2023-10-13T01:32:16;100700.66;;;17.29;100.00
72959;BME280;60008;50.826;6.896;2023-10-13T01:35:01;100695.97;;;17.31;100.00
72959;BME280;60008;50.826;6.896;2023-10-13T01:37:51;100689.78;;;17.31;100.00
72959;BME280;60008;50.826;6.896;2023-10-13T01:40:36;100679.47;;;17.27;100.00
72959;BME280;60008;50.826;6.896;2023-10-13T01:43:21;100686.25;;;17.23;100.00
72959;BME280;60008;50.826;6.896;2023-10-13T01:46:09;100688.91;;;17.23;100.00
72959;BME280;60008;50.826;6.896;2023-10-13T01:48:54;100689.13;;;17.15;100.00
72959;BME280;60008;50.826;6.896;2023-10-13T01:51:42;100679.66;;;17.19;100.00
72959;BME280;60008;50.826;6.896;2023-10-13T01:54:28;100681.09;;;17.22;100.00
72959;BME280;60008;50.826;6.896;2023-10-13T01:57:13;100672.25;;;17.28;100.00
72959;BME280;60008;50.826;6.896;2023-10-13T01:59:59;100669.75;;;17.26;100.00
72959;BME280;60008;50.826;6.896;2023-10-13T02:02:54;100665.66;;;17.24;100.00
72959;BME280;60008;50.826;6.896;2023-10-13T02:05:40;100664.00;;;17.16;100.00
72959;BME280;60008;50.826;6.896;2023-10-13T02:08:29;100665.84;;;17.16;100.00
72959;BME280;60008;50.826;6.896;2023-10-13T02:11:14;100662.97;;;17.17;100.00
72959;BME280;60008;50.826;6.896;2023-10-13T02:14:04;100658.84;;;17.08;100.00
72959;BME280;60008;50.826;6.896;2023-10-13T02:16:49;100655.56;;;17.19;100.00
72959;BME280;60008;50.826;6.896;2023-10-13T02:19:35;100650.19;;;17.06;100.00
72959;BME280;60008;50.826;6.896;2023-10-13T02:22:20;100653.47;;;17.08;100.00
72959;BME280;60008;50.826;6.896;2023-10-13T02:25:18;100638.44;;;17.14;100.00
72959;BME280;60008;50.826;6.896;2023-10-13T02:28:19;100633.72;;;17.03;100.00
72959;BME280;60008;50.826;6.896;2023-10-13T02:31:12;100638.03;;;17.10;100.00
72959;BME280;60008;50.826;6.896;2023-10-13T02:33:58;100638.84;;;17.24;100.00
72959;BME280;60008;50.826;6.896;2023-10-13T02:36:45;100626.72;;;17.08;100.00
72959;BME280;60008;50.826;6.896;2023-10-13T02:39:36;100625.88;;;17.08;100.00
72959;BME280;60008;50.826;6.896;2023-10-13T02:42:25;100619.50;;;17.09;100.00
72959;BME280;60008;50.826;6.896;2023-10-13T02:45:11;100622.38;;;17.14;100.00
72959;BME280;60008;50.826;6.896;2023-10-13T02:47:57;100617.22;;;17.06;100.00
72959;BME280;60008;50.826;6.896;2023-10-13T02:50:58;100613.50;;;17.07;100.00
72959;BME280;60008;50.826;6.896;2023-10-13T02:53:47;100598.06;;;17.15;100.00
72959;BME280;60008;50.826;6.896;2023-10-13T02:56:35;100597.88;;;17.17;100.00
72959;BME280;60008;50.826;6.896;2023-10-13T02:59:21;100586.72;;;17.26;100.00
72959;BME280;60008;50.826;6.896;2023-10-13T03:02:09;100596.22;;;17.22;100.00
72959;BME280;60008;50.826;6.896;2023-10-13T03:05:14;100587.16;;;17.17;100.00
72959;BME280;60008;50.826;6.896;2023-10-13T03:08:02;100585.09;;;17.19;100.00
72959;BME280;60008;50.826;6.896;2023-10-13T03:10:49;100583.22;;;17.13;100.00
72959;BME280;60008;50.826;6.896;2023-10-13T03:13:40;100576.84;;;17.14;100.00
72959;BME280;60008;50.826;6.896;2023-10-13T03:16:30;100563.88;;;17.17;100.00
72959;BME280;60008;50.826;6.896;2023-10-13T03:19:16;100557.47;;;17.05;100.00
72959;BME280;60008;50.826;6.896;2023-10-13T03:22:07;100555.44;;;17.14;100.00
72959;BME280;60008;50.826;6.896;2023-10-13T03:25:01;100543.06;;;17.19;100.00
72959;BME280;60008;50.826;6.896;2023-10-13T03:27:58;100542.22;;;17.25;100.00
72959;BME280;60008;50.826;6.896;2023-10-13T03:30:46;100534.19;;;17.25;100.00
72959;BME280;60008;50.826;6.896;2023-10-13T03:33:37;100525.94;;;17.20;100.00
72959;BME280;60008;50.826;6.896;2023-10-13T03:36:23;100533.34;;;17.32;100.00
72959;BME280;60008;50.826;6.896;2023-10-13T03:39:27;100528.38;;;17.28;100.00
72959;BME280;60008;50.826;6.896;2023-10-13T03:42:15;100525.56;;;17.17;100.00
72959;BME280;60008;50.826;6.896;2023-10-13T03:45:04;100516.06;;;17.27;100.00
72959;BME280;60008;50.826;6.896;2023-10-13T03:47:53;100491.91;;;17.41;100.00
72959;BME280;60008;50.826;6.896;2023-10-13T03:50:39;100508.38;;;17.38;100.00
72959;BME280;60008;50.826;6.896;2023-10-13T03:53:47;100500.53;;;17.43;100.00
72959;BME280;60008;50.826;6.896;2023-10-13T03:56:38;100501.59;;;17.42;100.00
72959;BME280;60008;50.826;6.896;2023-10-13T03:59:24;100485.69;;;17.47;100.00
72959;BME280;60008;50.826;6.896;2023-10-13T04:02:19;100493.09;;;17.51;100.00
72959;BME280;60008;50.826;6.896;2023-10-13T04:05:09;100487.16;;;17.43;100.00
72959;BME280;60008;50.826;6.896;2023-10-13T04:07:54;100494.75;;;17.59;100.00
72959;BME280;60008;50.826;6.896;2023-10-13T04:11:05;100485.50;;;17.55;100.00
72959;BME280;60008;50.826;6.896;2023-10-13T04:14:08;100485.69;;;17.53;100.00
72959;BME280;60008;50.826;6.896;2023-10-13T04:17:29;100488.78;;;17.57;100.00
72959;BME280;60008;50.826;6.896;2023-10-13T04:20:18;100488.34;;;17.60;100.00
72959;BME280;60008;50.826;6.896;2023-10-13T04:23:13;100484.66;;;17.54;100.00
72959;BME280;60008;50.826;6.896;2023-10-13T04:26:07;100492.31;;;17.44;100.00
72959;BME280;60008;50.826;6.896;2023-10-13T04:28:54;100480.72;;;17.63;100.00
72959;BME280;60008;50.826;6.896;2023-10-13T04:31:41;100474.34;;;17.58;100.00
72959;BME280;60008;50.826;6.896;2023-10-13T04:34:31;100475.38;;;17.57;100.00
72959;BME280;60008;50.826;6.896;2023-10-13T04:37:24;100473.31;;;17.59;100.00
72959;BME280;60008;50.826;6.896;2023-10-13T04:40:18;100462.22;;;17.55;100.00
72959;BME280;60008;50.826;6.896;2023-10-13T04:43:11;100456.81;;;17.49;100.00
72959;BME280;60008;50.826;6.896;2023-10-13T04:46:18;100461.34;;;17.48;100.00
72959;BME280;60008;50.826;6.896;2023-10-13T04:49:22;100451.28;;;17.44;100.00
72959;BME280;60008;50.826;6.896;2023-10-13T04:52:14;100451.28;;;17.44;100.00
72959;BME280;60008;50.826;6.896;2023-10-13T04:55:17;100454.81;;;17.38;100.00
72959;BME280;60008;50.826;6.896;2023-10-13T04:58:32;100450.47;;;17.37;100.00
72959;BME280;60008;50.826;6.896;2023-10-13T05:01:17;100448.00;;;17.42;100.00
72959;BME280;60008;50.826;6.896;2023-10-13T05:04:08;100446.13;;;17.42;100.00
72959;BME280;60008;50.826;6.896;2023-10-13T05:07:07;100456.22;;;17.53;100.00
72959;BME280;60008;50.826;6.896;2023-10-13T05:10:16;100449.19;;;17.59;100.00
72959;BME280;60008;50.826;6.896;2023-10-13T05:13:20;100445.50;;;17.53;100.00
72959;BME280;60008;50.826;6.896;2023-10-13T05:16:24;100438.44;;;17.65;100.00
72959;BME280;60008;50.826;6.896;2023-10-13T05:19:28;100436.84;;;17.58;100.00
72959;BME280;60008;50.826;6.896;2023-10-13T05:22:32;100430.66;;;17.57;100.00
72959;BME280;60008;50.826;6.896;2023-10-13T05:25:37;100428.56;;;17.59;100.00
72959;BME280;60008;50.826;6.896;2023-10-13T05:28:41;100424.81;;;17.67;100.00
72959;BME280;60008;50.826;6.896;2023-10-13T05:31:53;100436.19;;;17.62;100.00
72959;BME280;60008;50.826;6.896;2023-10-13T05:34:57;100426.47;;;17.68;100.00
72959;BME280;60008;50.826;6.896;2023-10-13T05:38:01;100436.78;;;17.64;100.00
72959;BME280;60008;50.826;6.896;2023-10-13T05:41:05;100437.44;;;17.60;100.00
72959;BME280;60008;50.826;6.896;2023-10-13T05:44:10;100439.94;;;17.55;100.00
72959;BME280;60008;50.826;6.896;2023-10-13T05:47:14;100434.34;;;17.56;100.00
72959;BME280;60008;50.826;6.896;2023-10-13T05:50:18;100437.63;;;17.65;100.00
72959;BME280;60008;50.826;6.896;2023-10-13T05:53:03;100432.84;;;17.67;100.00
72959;BME280;60008;50.826;6.896;2023-10-13T05:56:00;100428.91;;;17.69;100.00
72959;BME280;60008;50.826;6.896;2023-10-13T05:59:04;100439.38;;;17.84;100.00
72959;BME280;60008;50.826;6.896;2023-10-13T06:02:07;100428.38;;;17.92;100.00
72959;BME280;60008;50.826;6.896;2023-10-13T06:05:12;100433.59;;;17.80;100.00
72959;BME280;60008;50.826;6.896;2023-10-13T06:08:16;100423.03;;;17.92;100.00
72959;BME280;60008;50.826;6.896;2023-10-13T06:11:20;100426.72;;;17.91;100.00
72959;BME280;60008;50.826;6.896;2023-10-13T06:14:24;100427.78;;;17.90;100.00
72959;BME280;60008;50.826;6.896;2023-10-13T06:17:28;100427.97;;;17.95;100.00
72959;BME280;60008;50.826;6.896;2023-10-13T06:20:32;100424.28;;;17.90;100.00
72959;BME280;60008;50.826;6.896;2023-10-13T06:23:36;100425.09;;;17.90;100.00
72959;BME280;60008;50.826;6.896;2023-10-13T06:26:39;100422.09;;;18.05;100.00
72959;BME280;60008;50.826;6.896;2023-10-13T06:29:43;100413.84;;;18.06;100.00
72959;BME280;60008;50.826;6.896;2023-10-13T06:32:31;100424.63;;;18.00;100.00
72959;BME280;60008;50.826;6.896;2023-10-13T06:35:18;100427.22;;;18.13;100.00
72959;BME280;60008;50.826;6.896;2023-10-13T06:38:09;100418.13;;;18.14;100.00
72959;BME280;60008;50.826;6.896;2023-10-13T06:41:06;100417.31;;;18.13;100.00
72959;BME280;60008;50.826;6.896;2023-10-13T06:43:52;100420.34;;;18.23;100.00
72959;BME280;60008;50.826;6.896;2023-10-13T06:46:44;100411.03;;;18.26;100.00
72959;BME280;60008;50.826;6.896;2023-10-13T06:49:30;100410.25;;;18.19;100.00
72959;BME280;60008;50.826;6.896;2023-10-13T06:52:17;100395.41;;;18.16;100.00
72959;BME280;60008;50.826;6.896;2023-10-13T06:55:03;100400.94;;;18.21;100.00
72959;BME280;60008;50.826;6.896;2023-10-13T06:57:50;100394.16;;;18.19;100.00
72959;BME280;60008;50.826;6.896;2023-10-13T07:00:36;100389.19;;;18.22;100.00
72959;BME280;60008;50.826;6.896;2023-10-13T07:03:22;100383.78;;;18.29;100.00
72959;BME280;60008;50.826;6.896;2023-10-13T07:06:08;100387.06;;;18.31;100.00
72959;BME280;60008;50.826;6.896;2023-10-13T07:09:03;100387.88;;;18.31;100.00
72959;BME280;60008;50.826;6.896;2023-10-13T07:11:49;100377.47;;;18.41;100.00
72959;BME280;60008;50.826;6.896;2023-10-13T07:14:37;100378.88;;;18.51;100.00
72959;BME280;60008;50.826;6.896;2023-10-13T07:17:23;100373.34;;;18.64;100.00
72959;BME280;60008;50.826;6.896;2023-10-13T07:20:09;100378.72;;;18.64;100.00
72959;BME280;60008;50.826;6.896;2023-10-13T07:23:00;100368.69;;;18.77;100.00
72959;BME280;60008;50.826;6.896;2023-10-13T07:25:54;100364.63;;;18.86;100.00
72959;BME280;60008;50.826;6.896;2023-10-13T07:28:39;100363.59;;;18.69;100.00
72959;BME280;60008;50.826;6.896;2023-10-13T07:31:28;100363.06;;;18.79;100.00
72959;BME280;60008;50.826;6.896;2023-10-13T07:34:14;100364.72;;;18.80;100.00
72959;BME280;60008;50.826;6.896;2023-10-13T07:37:11;100359.50;;;18.85;100.00
72959;BME280;60008;50.826;6.896;2023-10-13T07:40:01;100358.38;;;18.92;100.00
72959;BME280;60008;50.826;6.896;2023-10-13T07:42:54;100351.53;;;18.96;100.00
72959;BME280;60008;50.826;6.896;2023-10-13T07:45:48;100357.53;;;18.92;100.00
72959;BME280;60008;50.826;6.896;2023-10-13T07:48:43;100350.38;;;19.04;100.00
72959;BME280;60008;50.826;6.896;2023-10-13T07:51:31;100342.63;;;19.14;100.00
72959;BME280;60008;50.826;6.896;2023-10-13T07:54:18;100335.66;;;19.25;100.00
72959;BME280;60008;50.826;6.896;2023-10-13T07:57:07;100324.91;;;19.43;100.00
72959;BME280;60008;50.826;6.896;2023-10-13T07:59:53;100328.69;;;19.65;100.00
72959;BME280;60008;50.826;6.896;2023-10-13T08:02:56;100325.75;;;19.55;100.00
72959;BME280;60008;50.826;6.896;2023-10-13T08:05:53;100323.59;;;19.75;100.00
72959;BME280;60008;50.826;6.896;2023-10-13T08:08:43;100325.00;;;19.78;100.00
72959;BME280;60008;50.826;6.896;2023-10-13T08:11:29;100318.59;;;19.90;100.00
72959;BME280;60008;50.826;6.896;2023-10-13T08:14:19;100320.38;;;19.96;100.00
72959;BME280;60008;50.826;6.896;2023-10-13T08:17:22;100318.13;;;19.93;100.00
72959;BME280;60008;50.826;6.896;2023-10-13T08:20:16;100320.56;;;19.95;100.00
72959;BME280;60008;50.826;6.896;2023-10-13T08:23:02;100324.28;;;19.71;100.00
72959;BME280;60008;50.826;6.896;2023-10-13T08:26:09;100304.28;;;19.67;100.00
72959;BME280;60008;50.826;6.896;2023-10-13T08:29:13;100298.41;;;19.58;100.00
72959;BME280;60008;50.826;6.896;2023-10-13T08:32:04;100292.38;;;19.74;100.00
72959;BME280;60008;50.826;6.896;2023-10-13T08:35:00;100294.22;;;19.74;100.00
72959;BME280;60008;50.826;6.896;2023-10-13T08:37:49;100285.13;;;19.75;100.00
72959;BME280;60008;50.826;6.896;2023-10-13T08:40:38;100290.25;;;19.76;100.00
72959;BME280;60008;50.826;6.896;2023-10-13T08:43:42;100274.03;;;19.83;100.00
72959;BME280;60008;50.826;6.896;2023-10-13T08:46:38;100279.19;;;19.96;100.00
72959;BME280;60008;50.826;6.896;2023-10-13T08:49:42;100263.63;;;20.21;100.00
72959;BME280;60008;50.826;6.896;2023-10-13T08:52:37;100259.28;;;20.20;100.00
72959;BME280;60008;50.826;6.896;2023-10-13T08:55:30;100266.09;;;20.11;100.00
72959;BME280;60008;50.826;6.896;2023-10-13T09:01:37;100268.91;;;20.51;100.00
72959;BME280;60008;50.826;6.896;2023-10-13T09:04:31;100267.84;;;20.52;100.00
72959;BME280;60008;50.826;6.896;2023-10-13T09:07:16;100265.13;;;20.63;100.00
72959;BME280;60008;50.826;6.896;2023-10-13T09:10:07;100262.13;;;20.88;100.00
72959;BME280;60008;50.826;6.896;2023-10-13T09:13:18;100266.88;;;20.69;100.00
72959;BME280;60008;50.826;6.896;2023-10-13T09:16:13;100261.31;;;20.88;100.00
72959;BME280;60008;50.826;6.896;2023-10-13T09:19:21;100251.78;;;20.97;100.00
72959;BME280;60008;50.826;6.896;2023-10-13T09:22:07;100257.47;;;20.84;100.00
72959;BME280;60008;50.826;6.896;2023-10-13T09:24:59;100248.66;;;20.88;100.00
72959;BME280;60008;50.826;6.896;2023-10-13T09:27:48;100246.00;;;21.05;100.00
72959;BME280;60008;50.826;6.896;2023-10-13T09:30:46;100240.75;;;20.98;100.00
72959;BME280;60008;50.826;6.896;2023-10-13T09:33:31;100239.22;;;21.14;100.00
72959;BME280;60008;50.826;6.896;2023-10-13T09:36:30;100240.41;;;21.51;100.00
72959;BME280;60008;50.826;6.896;2023-10-13T09:39:17;100237.38;;;22.52;100.00
72959;BME280;60008;50.826;6.896;2023-10-13T09:42:14;100224.75;;;22.58;100.00
72959;BME280;60008;50.826;6.896;2023-10-13T09:45:03;100221.88;;;22.26;100.00
72959;BME280;60008;50.826;6.896;2023-10-13T09:47:51;100213.47;;;22.01;100.00
72959;BME280;60008;50.826;6.896;2023-10-13T09:50:39;100219.00;;;21.94;100.00
72959;BME280;60008;50.826;6.896;2023-10-13T09:53:30;100216.50;;;22.26;100.00
72959;BME280;60008;50.826;6.896;2023-10-13T09:56:40;100201.63;;;22.45;100.00
72959;BME280;60008;50.826;6.896;2023-10-13T09:59:51;100204.69;;;22.32;100.00
72959;BME280;60008;50.826;6.896;2023-10-13T10:02:38;100193.66;;;22.12;100.00
72959;BME280;60008;50.826;6.896;2023-10-13T10:05:29;100192.13;;;22.21;100.00
72959;BME280;60008;50.826;6.896;2023-10-13T10:08:25;100196.34;;;22.12;100.00
72959;BME280;60008;50.826;6.896;2023-10-13T10:14:28;100198.41;;;22.27;100.00
72959;BME280;60008;50.826;6.896;2023-10-13T10:17:22;100199.44;;;22.64;100.00
72959;BME280;60008;50.826;6.896;2023-10-13T10:20:08;100204.53;;;23.09;100.00
72959;BME280;60008;50.826;6.896;2023-10-13T10:23:00;100196.59;;;23.56;100.00
72959;BME280;60008;50.826;6.896;2023-10-13T10:25:45;100199.84;;;23.26;100.00
72959;BME280;60008;50.826;6.896;2023-10-13T10:28:38;100196.78;;;23.44;100.00
72959;BME280;60008;50.826;6.896;2023-10-13T10:31:32;100199.03;;;23.26;100.00
72959;BME280;60008;50.826;6.896;2023-10-13T10:34:30;100179.00;;;23.53;100.00
72959;BME280;60008;50.826;6.896;2023-10-13T10:37:18;100192.00;;;23.30;100.00
72959;BME280;60008;50.826;6.896;2023-10-13T10:40:09;100195.06;;;23.06;100.00
72959;BME280;60008;50.826;6.896;2023-10-13T10:43:04;100193.75;;;23.41;100.00
72959;BME280;60008;50.826;6.896;2023-10-13T10:46:15;100190.88;;;23.21;100.00
72959;BME280;60008;50.826;6.896;2023-10-13T10:49:06;100180.28;;;23.19;100.00
72959;BME280;60008;50.826;6.896;2023-10-13T10:51:58;100172.25;;;23.29;100.00
72959;BME280;60008;50.826;6.896;2023-10-13T10:54:58;100161.13;;;23.21;100.00
72959;BME280;60008;50.826;6.896;2023-10-13T10:57:43;100153.41;;;23.07;100.00
72959;BME280;60008;50.826;6.896;2023-10-13T11:00:28;100149.03;;;23.01;100.00
72959;BME280;60008;50.826;6.896;2023-10-13T11:03:26;100148.19;;;22.96;100.00
72959;BME280;60008;50.826;6.896;2023-10-13T11:06:12;100145.41;;;23.18;100.00
72959;BME280;60008;50.826;6.896;2023-10-13T11:09:06;100140.19;;;23.11;100.00
72959;BME280;60008;50.826;6.896;2023-10-13T11:12:14;100132.44;;;23.20;100.00
72959;BME280;60008;50.826;6.896;2023-10-13T11:15:19;100127.56;;;23.22;100.00
72959;BME280;60008;50.826;6.896;2023-10-13T11:18:07;100124.28;;;23.15;100.00
72959;BME280;60008;50.826;6.896;2023-10-13T11:20:58;100121.22;;;23.06;100.00
72959;BME280;60008;50.826;6.896;2023-10-13T11:23:55;100126.44;;;23.13;100.00
72959;BME280;60008;50.826;6.896;2023-10-13T11:26:40;100118.22;;;23.02;100.00
72959;BME280;60008;50.826;6.896;2023-10-13T11:29:34;100112.25;;;23.00;100.00
72959;BME280;60008;50.826;6.896;2023-10-13T11:32:19;100122.56;;;23.03;100.00
72959;BME280;60008;50.826;6.896;2023-10-13T11:35:06;100107.88;;;22.94;100.00
72959;BME280;60008;50.826;6.896;2023-10-13T11:38:05;100118.91;;;22.88;100.00
72959;BME280;60008;50.826;6.896;2023-10-13T11:41:03;100111.31;;;22.85;100.00
72959;BME280;60008;50.826;6.896;2023-10-13T11:43:52;100107.25;;;22.82;100.00
72959;BME280;60008;50.826;6.896;2023-10-13T11:46:38;100107.13;;;22.72;100.00
72959;BME280;60008;50.826;6.896;2023-10-13T11:49:41;100108.75;;;22.73;100.00
72959;BME280;60008;50.826;6.896;2023-10-13T11:52:26;100102.81;;;22.71;100.00
72959;BME280;60008;50.826;6.896;2023-10-13T11:55:13;100109.59;;;22.74;100.00
72959;BME280;60008;50.826;6.896;2023-10-13T11:57:59;100106.09;;;22.78;100.00
72959;BME280;60008;50.826;6.896;2023-10-13T12:00:44;100111.72;;;22.72;100.00
72959;BME280;60008;50.826;6.896;2023-10-13T12:03:36;100111.16;;;22.70;100.00
72959;BME280;60008;50.826;6.896;2023-10-13T12:06:40;100109.34;;;22.80;100.00
72959;BME280;60008;50.826;6.896;2023-10-13T12:09:25;100106.66;;;22.80;100.00
72959;BME280;60008;50.826;6.896;2023-10-13T12:12:10;100088.78;;;22.74;100.00
72959;BME280;60008;50.826;6.896;2023-10-13T12:14:55;100086.88;;;22.75;100.00
72959;BME280;60008;50.826;6.896;2023-10-13T12:17:41;100078.25;;;22.78;100.00
72959;BME280;60008;50.826;6.896;2023-10-13T12:20:30;100081.81;;;22.83;100.00
72959;BME280;60008;50.826;6.896;2023-10-13T12:23:19;100083.66;;;22.78;100.00
72959;BME280;60008;50.826;6.896;2023-10-13T12:26:08;100068.28;;;22.78;100.00
72959;BME280;60008;50.826;6.896;2023-10-13T12:29:04;100073.69;;;22.78;100.00
72959;BME280;60008;50.826;6.896;2023-10-13T12:31:52;100059.34;;;22.78;100.00
72959;BME280;60008;50.826;6.896;2023-10-13T12:34:56;100054.75;;;22.78;100.00
72959;BME280;60008;50.826;6.896;2023-10-13T12:37:43;100064.34;;;22.91;100.00
72959;BME280;60008;50.826;6.896;2023-10-13T12:40:28;100058.38;;;22.89;100.00
72959;BME280;60008;50.826;6.896;2023-10-13T12:43:31;100049.88;;;22.75;100.00
72959;BME280;60008;50.826;6.896;2023-10-13T12:46:35;100050.22;;;22.84;100.00
72959;BME280;60008;50.826;6.896;2023-10-13T12:49:39;100055.97;;;22.92;100.00
72959;BME280;60008;50.826;6.896;2023-10-13T12:52:28;100053.16;;;23.14;100.00
72959;BME280;60008;50.826;6.896;2023-10-13T12:55:19;100047.28;;;23.22;100.00
72959;BME280;60008;50.826;6.896;2023-10-13T12:58:09;100029.63;;;23.09;100.00
72959;BME280;60008;50.826;6.896;2023-10-13T13:00:59;100027.66;;;23.05;100.00
72959;BME280;60008;50.826;6.896;2023-10-13T13:03:52;100032.84;;;23.06;100.00
72959;BME280;60008;50.826;6.896;2023-10-13T13:06:41;100032.84;;;23.06;100.00
72959;BME280;60008;50.826;6.896;2023-10-13T13:09:26;100032.31;;;23.09;100.00
72959;BME280;60008;50.826;6.896;2023-10-13T13:12:11;100034.16;;;23.04;100.00
72959;BME280;60008;50.826;6.896;2023-10-13T13:14:59;100020.38;;;23.05;100.00
72959;BME280;60008;50.826;6.896;2023-10-13T13:17:45;100021.84;;;23.18;100.00
72959;BME280;60008;50.826;6.896;2023-10-13T13:20:32;100007.16;;;23.51;100.00
72959;BME280;60008;50.826;6.896;2023-10-13T13:23:19;100007.47;;;23.59;100.00
72959;BME280;60008;50.826;6.896;2023-10-13T13:26:04;100007.22;;;23.56;100.00
72959;BME280;60008;50.826;6.896;2023-10-13T13:29:00;100011.28;;;23.58;100.00
72959;BME280;60008;50.826;6.896;2023-10-13T13:31:45;100006.38;;;23.55;100.00
72959;BME280;60008;50.826;6.896;2023-10-13T13:34:31;100012.66;;;23.66;100.00
72959;BME280;60008;50.826;6.896;2023-10-13T13:37:16;100055.94;;;23.61;100.00
72959;BME280;60008;50.826;6.896;2023-10-13T13:40:04;100029.38;;;23.53;100.00
72959;BME280;60008;50.826;6.896;2023-10-13T13:43:03;100032.59;;;23.50;100.00
72959;BME280;60008;50.826;6.896;2023-10-13T13:45:48;100029.59;;;23.46;100.00
72959;BME280;60008;50.826;6.896;2023-10-13T13:48:33;100030.34;;;23.37;100.00
72959;BME280;60008;50.826;6.896;2023-10-13T13:51:19;100015.69;;;23.33;100.00
72959;BME280;60008;50.826;6.896;2023-10-13T13:54:11;100020.25;;;23.27;100.00
72959;BME280;60008;50.826;6.896;2023-10-13T13:56:56;100008.59;;;23.22;100.00
72959;BME280;60008;50.826;6.896;2023-10-13T13:59:42;100007.22;;;23.19;100.00
72959;BME280;60008;50.826;6.896;2023-10-13T14:02:30;99991.84;;;23.25;100.00
72959;BME280;60008;50.826;6.896;2023-10-13T14:05:20;99992.16;;;23.28;100.00
72959;BME280;60008;50.826;6.896;2023-10-13T14:08:05;99985.38;;;23.26;100.00
72959;BME280;60008;50.826;6.896;2023-10-13T14:10:56;99997.78;;;23.22;100.00
72959;BME280;60008;50.826;6.896;2023-10-13T14:16:57;99991.53;;;23.21;100.00
72959;BME280;60008;50.826;6.896;2023-10-13T14:20:08;100001.78;;;23.14;100.00
72959;BME280;60008;50.826;6.896;2023-10-13T14:23:03;100009.59;;;23.10;100.00
72959;BME280;60008;50.826;6.896;2023-10-13T14:25:52;100010.88;;;22.98;100.00
72959;BME280;60008;50.826;6.896;2023-10-13T14:28:37;99995.47;;;22.98;100.00
72959;BME280;60008;50.826;6.896;2023-10-13T14:31:23;100000.34;;;22.96;100.00
72959;BME280;60008;50.826;6.896;2023-10-13T14:34:09;99997.56;;;22.91;100.00
72959;BME280;60008;50.826;6.896;2023-10-13T14:36:54;100001.09;;;22.92;100.00
72959;BME280;60008;50.826;6.896;2023-10-13T14:39:40;99999.47;;;22.91;100.00
72959;BME280;60008;50.826;6.896;2023-10-13T14:42:29;99992.09;;;22.81;100.00
72959;BME280;60008;50.826;6.896;2023-10-13T14:45:20;100023.34;;;22.72;100.00
72959;BME280;60008;50.826;6.896;2023-10-13T14:48:07;100003.66;;;22.72;100.00
72959;BME280;60008;50.826;6.896;2023-10-13T14:50:53;99986.81;;;22.65;100.00
72959;BME280;60008;50.826;6.896;2023-10-13T14:53:41;99999.50;;;22.64;100.00
72959;BME280;60008;50.826;6.896;2023-10-13T14:56:28;100010.94;;;22.71;100.00
72959;BME280;60008;50.826;6.896;2023-10-13T14:59:13;100007.22;;;22.77;100.00